createdAt,value
2022-09-28T00:00:03.890Z,13.50
2022-09-28T00:02:31.740Z,13.50
2022-09-28T00:04:58.790Z,13.40
2022-09-28T00:07:25.811Z,13.50
2022-09-28T00:09:52.733Z,13.50
2022-09-28T00:12:19.687Z,13.50
2022-09-28T00:14:46.764Z,13.50
2022-09-28T00:17:14.266Z,13.50
2022-09-28T00:19:41.315Z,13.50
2022-09-28T00:22:08.451Z,13.50
2022-09-28T00:24:35.557Z,13.60
2022-09-28T00:27:02.982Z,13.60
2022-09-28T00:29:37.583Z,13.50
2022-09-28T00:32:11.774Z,13.50
2022-09-28T00:34:43.481Z,13.50
2022-09-28T00:37:10.821Z,13.50
2022-09-28T00:39:41.237Z,13.40
2022-09-28T00:42:20.704Z,13.50
2022-09-28T00:44:58.691Z,13.50
2022-09-28T00:47:52.117Z,13.40
2022-09-28T00:50:24.654Z,13.40
2022-09-28T00:53:11.696Z,13.50
2022-09-28T00:55:40.943Z,13.60
2022-09-28T00:58:12.566Z,13.40
2022-09-28T01:00:43.535Z,13.40
2022-09-28T01:03:11.098Z,13.40
2022-09-28T01:05:42.388Z,13.40
2022-09-28T01:08:11.236Z,13.40
2022-09-28T01:10:40.866Z,13.40
2022-09-28T01:13:09.670Z,13.60
2022-09-28T01:16:02.748Z,13.60
2022-09-28T01:18:58.295Z,13.50
2022-09-28T01:21:25.982Z,13.50
2022-09-28T01:24:10.566Z,13.50
2022-09-28T01:26:48.829Z,13.50
2022-09-28T01:29:29.048Z,13.50
2022-09-28T01:32:35.501Z,13.40
2022-09-28T01:35:27.206Z,13.50
2022-09-28T01:38:02.100Z,13.50
2022-09-28T01:40:32.241Z,13.50
2022-09-28T01:43:04.726Z,13.40
2022-09-28T01:45:38.842Z,13.40
2022-09-28T01:48:08.033Z,13.40
2022-09-28T01:50:38.841Z,13.40
2022-09-28T01:53:12.999Z,13.40
2022-09-28T01:55:47.329Z,13.40
2022-09-28T01:58:25.001Z,13.40
2022-09-28T02:01:00.272Z,13.40
2022-09-28T02:03:44.783Z,13.40
2022-09-28T02:06:27.103Z,13.30
2022-09-28T02:09:00.659Z,13.40
2022-09-28T02:11:27.953Z,13.30
2022-09-28T02:14:12.072Z,13.40
2022-09-28T02:16:50.623Z,13.30
2022-09-28T02:19:24.728Z,13.40
2022-09-28T02:22:00.452Z,13.40
2022-09-28T02:24:51.035Z,13.40
2022-09-28T02:27:34.499Z,13.30
2022-09-28T02:30:02.998Z,13.30
2022-09-28T02:32:33.458Z,13.30
2022-09-28T02:35:03.091Z,13.30
2022-09-28T02:37:30.098Z,13.30
2022-09-28T02:39:57.212Z,13.30
2022-09-28T02:42:43.135Z,13.20
2022-09-28T02:45:21.987Z,13.20
2022-09-28T02:48:19.088Z,13.20
2022-09-28T02:51:00.523Z,13.20
2022-09-28T02:53:51.810Z,13.20
2022-09-28T02:57:03.564Z,13.20
2022-09-28T02:59:48.631Z,13.10
2022-09-28T03:02:22.711Z,13.10
2022-09-28T03:05:19.083Z,13.10
2022-09-28T03:08:23.339Z,13.10
2022-09-28T03:10:58.184Z,13.20
2022-09-28T03:13:26.993Z,13.10
2022-09-28T03:16:16.211Z,13.00
2022-09-28T03:18:43.642Z,13.00
2022-09-28T03:21:14.802Z,13.00
2022-09-28T03:23:42.700Z,13.00
2022-09-28T03:26:12.881Z,13.00
2022-09-28T03:28:40.525Z,12.90
2022-09-28T03:31:07.927Z,12.90
2022-09-28T03:33:35.272Z,12.90
2022-09-28T03:36:02.273Z,12.90
2022-09-28T03:38:31.149Z,12.80
2022-09-28T03:40:59.972Z,12.80
2022-09-28T03:43:28.434Z,12.80
2022-09-28T03:45:57.753Z,12.80
2022-09-28T03:48:31.197Z,12.70
2022-09-28T03:51:01.528Z,12.70
2022-09-28T03:53:30.048Z,12.80
2022-09-28T03:56:02.402Z,12.70
2022-09-28T03:58:29.389Z,12.70
2022-09-28T04:01:05.686Z,12.70
2022-09-28T04:03:33.388Z,12.70
2022-09-28T04:06:00.709Z,12.70
2022-09-28T04:08:27.918Z,12.70
2022-09-28T04:10:59.167Z,12.60
2022-09-28T04:13:28.929Z,12.60
2022-09-28T04:15:57.562Z,12.60
2022-09-28T04:18:24.643Z,12.70
2022-09-28T04:21:06.954Z,12.70
2022-09-28T04:23:38.855Z,12.70
2022-09-28T04:26:08.262Z,12.70
2022-09-28T04:28:53.639Z,12.80
2022-09-28T04:31:23.027Z,12.80
2022-09-28T04:33:50.196Z,12.80
2022-09-28T04:36:17.939Z,12.80
2022-09-28T04:38:53.476Z,12.80
2022-09-28T04:41:22.522Z,12.80
2022-09-28T04:43:50.489Z,12.80
2022-09-28T04:46:17.782Z,12.80
2022-09-28T04:48:45.248Z,12.90
2022-09-28T04:51:12.289Z,12.80
2022-09-28T04:53:39.367Z,12.80
2022-09-28T04:56:10.798Z,12.80
2022-09-28T04:58:38.508Z,12.80
2022-09-28T05:01:08.304Z,12.80
2022-09-28T05:03:35.772Z,12.80
2022-09-28T05:06:03.433Z,12.90
2022-09-28T05:08:30.576Z,12.90
2022-09-28T05:11:00.629Z,12.90
2022-09-28T05:13:29.027Z,13.00
2022-09-28T05:16:00.627Z,12.90
2022-09-28T05:18:30.427Z,12.90
2022-09-28T05:20:57.798Z,12.90
2022-09-28T05:23:24.757Z,12.90
2022-09-28T05:25:52.023Z,12.90
2022-09-28T05:28:27.984Z,12.90
2022-09-28T05:31:03.113Z,12.90
2022-09-28T05:33:31.361Z,12.90
2022-09-28T05:36:01.575Z,13.00
2022-09-28T05:38:30.130Z,13.00
2022-09-28T05:40:57.354Z,13.00
2022-09-28T05:43:24.515Z,12.90
2022-09-28T05:45:55.260Z,13.00
2022-09-28T05:48:28.581Z,13.00
2022-09-28T05:50:55.860Z,13.00
2022-09-28T05:53:22.993Z,13.00
2022-09-28T05:55:50.424Z,13.00
2022-09-28T05:58:18.210Z,13.10
2022-09-28T06:00:45.291Z,13.00
2022-09-28T06:03:14.317Z,13.00
2022-09-28T06:05:41.556Z,13.10
2022-09-28T06:08:10.719Z,13.10
2022-09-28T06:10:38.006Z,13.10
2022-09-28T06:13:06.682Z,13.20
2022-09-28T06:15:35.892Z,13.20
2022-09-28T06:18:05.863Z,13.20
2022-09-28T06:20:38.576Z,13.20
2022-09-28T06:23:05.910Z,13.20
2022-09-28T06:25:33.048Z,13.10
2022-09-28T06:28:01.689Z,13.00
2022-09-28T06:30:30.284Z,13.00
2022-09-28T06:32:59.113Z,13.00
2022-09-28T06:35:29.221Z,13.00
2022-09-28T06:37:57.165Z,13.00
2022-09-28T06:40:25.084Z,13.00
2022-09-28T06:43:12.762Z,13.10
2022-09-28T06:45:39.714Z,13.20
2022-09-28T06:48:07.491Z,13.20
2022-09-28T06:50:42.586Z,13.20
2022-09-28T06:53:20.020Z,13.30
2022-09-28T06:55:50.613Z,13.60
2022-09-28T06:58:20.121Z,13.60
2022-09-28T07:00:48.993Z,13.70
2022-09-28T07:03:21.778Z,13.90
2022-09-28T07:05:54.120Z,13.80
2022-09-28T07:08:26.580Z,13.80
2022-09-28T07:10:56.899Z,13.80
2022-09-28T07:16:13.575Z,13.70
2022-09-28T07:18:40.769Z,13.70
2022-09-28T07:21:09.239Z,13.80
2022-09-28T07:23:48.633Z,14.10
2022-09-28T07:26:23.022Z,14.80
2022-09-28T07:28:51.588Z,14.80
2022-09-28T07:31:20.657Z,14.80
2022-09-28T07:33:51.281Z,14.60
2022-09-28T07:36:21.149Z,14.70
2022-09-28T07:38:48.216Z,14.90
2022-09-28T07:41:18.326Z,14.90
2022-09-28T07:43:45.427Z,15.00
2022-09-28T07:46:12.576Z,14.80
2022-09-28T07:48:41.446Z,14.80
2022-09-28T07:51:09.317Z,14.80
2022-09-28T07:53:38.367Z,14.60
2022-09-28T07:56:09.404Z,14.40
2022-09-28T07:58:38.585Z,14.50
2022-09-28T08:01:10.880Z,14.60
2022-09-28T08:03:39.350Z,14.30
2022-09-28T08:06:11.178Z,14.50
2022-09-28T08:08:40.117Z,14.40
2022-09-28T08:11:08.634Z,14.40
2022-09-28T08:13:35.768Z,14.50
2022-09-28T08:16:04.077Z,14.40
2022-09-28T08:18:31.967Z,14.60
2022-09-28T08:21:17.587Z,14.70
2022-09-28T08:23:44.670Z,14.70
2022-09-28T08:26:15.356Z,14.60
2022-09-28T08:28:43.643Z,14.50
2022-09-28T08:31:10.812Z,14.60
2022-09-28T08:33:38.094Z,14.50
2022-09-28T08:36:06.095Z,14.40
2022-09-28T08:38:33.439Z,14.30
2022-09-28T08:41:20.098Z,14.40
2022-09-28T08:44:14.610Z,14.50
2022-09-28T08:46:49.397Z,14.60
2022-09-28T08:49:26.515Z,14.60
2022-09-28T08:52:05.691Z,14.70
2022-09-28T08:54:56.534Z,14.60
2022-09-28T08:57:50.577Z,14.70
2022-09-28T09:00:42.514Z,14.70
2022-09-28T09:03:44.672Z,14.80
2022-09-28T09:06:18.295Z,14.70
2022-09-28T09:08:49.277Z,14.70
2022-09-28T09:11:24.988Z,14.70
2022-09-28T09:14:21.053Z,14.60
2022-09-28T09:17:10.908Z,14.70
2022-09-28T09:20:06.366Z,14.60
2022-09-28T09:22:41.123Z,14.50
2022-09-28T09:25:25.309Z,14.50
2022-09-28T09:28:22.083Z,14.30
2022-09-28T09:31:12.764Z,14.10
2022-09-28T09:34:01.917Z,14.20
2022-09-28T09:36:59.653Z,14.30
2022-09-28T09:39:51.425Z,14.10
2022-09-28T09:42:57.006Z,14.10
2022-09-28T09:45:43.175Z,14.10
2022-09-28T09:48:32.566Z,14.40
2022-09-28T09:51:05.598Z,14.30
2022-09-28T09:53:55.553Z,14.20
2022-09-28T09:56:30.446Z,14.20
2022-09-28T09:59:08.093Z,14.20
2022-09-28T10:01:41.264Z,14.30
2022-09-28T10:04:20.838Z,14.20
2022-09-28T10:06:50.891Z,14.20
2022-09-28T10:09:25.378Z,14.30
2022-09-28T10:11:54.076Z,14.40
2022-09-28T10:14:24.294Z,14.40
2022-09-28T10:16:57.259Z,14.40
2022-09-28T10:19:34.833Z,14.30
2022-09-28T10:22:05.866Z,14.40
2022-09-28T10:24:36.958Z,14.40
2022-09-28T10:27:14.878Z,14.40
2022-09-28T10:29:55.457Z,14.30
2022-09-28T10:32:28.399Z,14.40
2022-09-28T10:35:12.486Z,14.50
2022-09-28T10:38:09.377Z,14.70
2022-09-28T10:40:44.869Z,14.70
2022-09-28T10:43:29.010Z,14.80
2022-09-28T10:46:02.038Z,14.80
2022-09-28T10:48:32.571Z,14.70
2022-09-28T10:51:09.279Z,14.50
2022-09-28T10:53:39.066Z,14.20
2022-09-28T10:56:18.158Z,14.10
2022-09-28T10:58:45.825Z,14.20
2022-09-28T11:01:18.668Z,14.10
2022-09-28T11:03:54.288Z,14.10
2022-09-28T11:06:34.829Z,14.10
2022-09-28T11:09:20.147Z,14.10
2022-09-28T11:11:47.605Z,14.30
2022-09-28T11:14:41.294Z,14.30
2022-09-28T11:17:38.695Z,14.20
2022-09-28T11:20:27.812Z,14.20
2022-09-28T11:23:18.865Z,14.20
2022-09-28T11:26:18.376Z,14.20
2022-09-28T11:28:51.821Z,14.00
2022-09-28T11:31:27.117Z,14.10
2022-09-28T11:34:14.218Z,14.20
2022-09-28T11:37:01.908Z,14.10
2022-09-28T11:39:55.401Z,14.10
2022-09-28T11:42:41.877Z,14.10
2022-09-28T11:45:47.233Z,14.20
2022-09-28T11:48:26.048Z,14.20
2022-09-28T11:51:08.908Z,14.10
2022-09-28T11:54:01.687Z,14.10
2022-09-28T11:56:43.686Z,14.10
2022-09-28T11:59:32.460Z,14.10
2022-09-28T12:02:38.158Z,14.20
2022-09-28T12:05:22.742Z,14.30
2022-09-28T12:08:17.280Z,14.20
2022-09-28T12:11:00.508Z,14.30
2022-09-28T12:13:33.076Z,14.20
2022-09-28T12:16:38.787Z,14.10
2022-09-28T12:18:49.460Z,14.30
2022-09-28T12:21:25.704Z,14.10
2022-09-28T12:23:57.022Z,14.00
2022-09-28T12:26:39.243Z,14.00
2022-09-28T12:29:14.340Z,14.00
2022-09-28T12:32:16.868Z,14.00
2022-09-28T12:34:46.919Z,13.90
2022-09-28T12:37:41.563Z,13.90
2022-09-28T12:40:26.338Z,13.90
2022-09-28T12:42:56.502Z,13.60
2022-09-28T12:46:10.832Z,13.80
2022-09-28T12:51:52.869Z,13.80
2022-09-28T12:54:50.983Z,13.80
2022-09-28T12:57:33.032Z,13.90
2022-09-28T13:00:11.891Z,14.70
2022-09-28T13:03:03.755Z,15.00
2022-09-28T13:06:04.686Z,15.20
2022-09-28T13:08:50.284Z,15.50
2022-09-28T13:11:33.349Z,15.60
2022-09-28T13:14:15.802Z,15.70
2022-09-28T13:17:06.203Z,15.00
2022-09-28T13:19:48.245Z,14.40
2022-09-28T13:22:51.525Z,14.20
2022-09-28T13:25:21.916Z,14.30
2022-09-28T13:27:55.682Z,13.80
2022-09-28T13:30:23.079Z,13.70
2022-09-28T13:32:50.646Z,13.60
2022-09-28T13:35:21.753Z,13.60
2022-09-28T13:38:18.227Z,13.60
2022-09-28T13:41:03.740Z,13.70
2022-09-28T13:43:53.554Z,13.60
2022-09-28T13:46:51.263Z,13.80
2022-09-28T13:49:45.739Z,13.60
2022-09-28T13:52:21.597Z,13.50
2022-09-28T13:55:08.141Z,13.40
2022-09-28T13:57:44.381Z,13.40
2022-09-28T14:00:11.691Z,13.50
2022-09-28T14:03:01.877Z,13.60
2022-09-28T14:05:47.680Z,13.50
2022-09-28T14:08:28.822Z,13.40
2022-09-28T14:10:58.349Z,13.40
2022-09-28T14:13:46.058Z,13.40
2022-09-28T14:16:19.082Z,13.50
2022-09-28T14:19:01.220Z,13.40
2022-09-28T14:21:52.847Z,13.50
2022-09-28T14:24:58.587Z,13.50
2022-09-28T14:27:32.565Z,13.50
2022-09-28T14:30:14.470Z,13.30
2022-09-28T14:32:47.821Z,13.20
2022-09-28T14:35:35.372Z,13.10
2022-09-28T14:38:39.180Z,13.20
2022-09-28T14:41:31.698Z,13.20
2022-09-28T14:44:04.484Z,13.10
2022-09-28T14:46:35.681Z,13.20
2022-09-28T14:49:05.071Z,13.30
2022-09-28T14:51:35.548Z,13.20
2022-09-28T14:54:12.137Z,13.10
2022-09-28T14:57:19.823Z,13.00
2022-09-28T14:59:48.048Z,13.10
2022-09-28T15:02:24.914Z,13.00
2022-09-28T15:04:52.366Z,13.00
2022-09-28T15:07:24.110Z,13.00
2022-09-28T15:09:53.741Z,12.90
2022-09-28T15:12:32.149Z,13.00
2022-09-28T15:15:08.712Z,12.90
2022-09-28T15:17:40.225Z,12.70
2022-09-28T15:20:30.306Z,12.80
2022-09-28T15:22:59.363Z,12.90
2022-09-28T15:25:28.857Z,12.80
2022-09-28T15:28:02.479Z,12.70
2022-09-28T15:30:34.748Z,12.80
2022-09-28T15:33:21.694Z,12.80
2022-09-28T15:36:01.358Z,12.80
2022-09-28T15:38:30.199Z,12.80
2022-09-28T15:40:57.510Z,12.80
2022-09-28T15:43:32.904Z,12.80
2022-09-28T15:46:04.796Z,12.80
2022-09-28T15:48:45.902Z,12.70
2022-09-28T15:51:12.910Z,12.60
2022-09-28T15:54:09.628Z,12.70
2022-09-28T15:57:27.999Z,12.50
2022-09-28T15:59:59.362Z,12.60
2022-09-28T16:02:27.019Z,12.30
2022-09-28T16:04:56.929Z,12.30
2022-09-28T16:07:31.248Z,12.30
2022-09-28T16:10:00.860Z,12.30
2022-09-28T16:12:37.577Z,12.30
2022-09-28T16:15:27.369Z,12.40
2022-09-28T16:18:07.476Z,12.40
2022-09-28T16:20:41.436Z,12.30
2022-09-28T16:23:17.720Z,12.30
2022-09-28T16:25:55.796Z,12.30
2022-09-28T16:28:38.076Z,12.30
2022-09-28T16:31:23.185Z,12.20
2022-09-28T16:34:16.575Z,12.20
2022-09-28T16:36:48.536Z,12.20
2022-09-28T16:39:16.985Z,12.10
2022-09-28T16:41:53.983Z,12.20
2022-09-28T16:44:30.078Z,12.00
2022-09-28T16:46:58.633Z,12.10
2022-09-28T16:49:26.399Z,12.00
2022-09-28T16:51:53.956Z,12.00
2022-09-28T16:54:42.314Z,12.10
2022-09-28T16:57:13.523Z,12.20
2022-09-28T16:59:40.808Z,12.10
2022-09-28T17:05:07.209Z,12.10
2022-09-28T17:07:34.736Z,12.20
2022-09-28T17:10:01.664Z,12.20
2022-09-28T17:12:28.998Z,12.10
2022-09-28T17:14:56.149Z,12.10
2022-09-28T17:17:23.056Z,12.10
2022-09-28T17:19:49.949Z,12.10
2022-09-28T17:22:18.460Z,12.00
2022-09-28T17:24:46.222Z,12.00
2022-09-28T17:27:18.480Z,12.00
2022-09-28T17:29:45.550Z,12.00
2022-09-28T17:32:18.117Z,11.70
2022-09-28T17:34:51.512Z,11.50
2022-09-28T17:37:23.249Z,11.40
2022-09-28T17:39:52.437Z,11.40
2022-09-28T17:42:19.338Z,11.20
2022-09-28T17:44:46.311Z,11.20
2022-09-28T17:47:13.672Z,11.10
2022-09-28T17:49:40.656Z,11.10
2022-09-28T17:52:08.333Z,11.00
2022-09-28T17:54:37.721Z,11.00
2022-09-28T17:57:04.566Z,11.00
2022-09-28T17:59:31.934Z,11.00
2022-09-28T18:02:02.187Z,11.00
2022-09-28T18:04:50.661Z,11.00
2022-09-28T18:07:17.805Z,11.00
2022-09-28T18:09:44.771Z,11.00
2022-09-28T18:12:11.751Z,10.90
2022-09-28T18:14:40.193Z,10.90
2022-09-28T18:17:07.082Z,10.90
2022-09-28T18:19:33.949Z,11.00
2022-09-28T18:22:01.895Z,10.90
2022-09-28T18:24:28.914Z,10.80
2022-09-28T18:26:55.847Z,10.90
2022-09-28T18:29:23.035Z,10.90
2022-09-28T18:31:50.139Z,10.90
2022-09-28T18:34:17.250Z,10.70
2022-09-28T18:36:44.509Z,10.70
2022-09-28T18:39:11.695Z,10.70
2022-09-28T18:41:38.752Z,10.70
2022-09-28T18:44:05.928Z,10.70
2022-09-28T18:46:40.126Z,10.80
2022-09-28T18:49:10.443Z,10.90
2022-09-28T18:51:37.739Z,11.00
2022-09-28T18:54:07.261Z,11.10
2022-09-28T18:56:40.837Z,11.20
2022-09-28T18:59:12.162Z,11.20
2022-09-28T19:01:42.087Z,11.30
2022-09-28T19:04:10.062Z,11.30
2022-09-28T19:06:41.847Z,11.50
2022-09-28T19:09:09.542Z,11.50
2022-09-28T19:11:40.192Z,11.40
2022-09-28T19:14:11.299Z,11.40
2022-09-28T19:16:38.238Z,11.50
2022-09-28T19:19:06.607Z,11.50
2022-09-28T19:21:34.000Z,11.50
2022-09-28T19:24:01.947Z,11.40
2022-09-28T19:26:30.489Z,11.50
2022-09-28T19:28:58.208Z,11.50
2022-09-28T19:31:26.564Z,11.50
2022-09-28T19:33:53.510Z,11.50
2022-09-28T19:36:24.203Z,11.50
2022-09-28T19:38:53.453Z,11.60
2022-09-28T19:41:43.823Z,11.40
2022-09-28T19:44:25.513Z,11.50
2022-09-28T19:46:57.175Z,11.50
2022-09-28T19:49:26.121Z,11.50
2022-09-28T19:52:15.116Z,11.40
2022-09-28T19:54:56.532Z,11.40
2022-09-28T19:57:26.339Z,11.40
2022-09-28T19:59:55.780Z,11.50
2022-09-28T20:02:23.807Z,11.50
2022-09-28T20:04:50.797Z,11.50
2022-09-28T20:07:17.718Z,11.50
2022-09-28T20:09:44.650Z,11.50
2022-09-28T20:12:11.821Z,11.50
2022-09-28T20:14:40.395Z,11.60
2022-09-28T20:17:08.074Z,11.60
2022-09-28T20:19:35.429Z,11.60
2022-09-28T20:22:03.021Z,11.70
2022-09-28T20:24:31.440Z,11.60
2022-09-28T20:26:59.120Z,11.60
2022-09-28T20:29:26.846Z,11.60
2022-09-28T20:31:53.753Z,11.70
2022-09-28T20:34:20.665Z,11.60
2022-09-28T20:36:48.402Z,11.60
2022-09-28T20:39:15.342Z,11.50
2022-09-28T20:41:42.598Z,11.50
2022-09-28T20:44:09.998Z,11.50
2022-09-28T20:46:38.247Z,11.50
2022-09-28T20:49:05.886Z,11.60
2022-09-28T20:51:33.018Z,11.60
2022-09-28T20:54:00.459Z,11.60
2022-09-28T20:56:30.775Z,11.70
2022-09-28T20:58:57.807Z,11.70
2022-09-28T21:01:26.923Z,11.70
2022-09-28T21:04:05.423Z,11.70
2022-09-28T21:06:34.804Z,11.60
2022-09-28T21:09:02.678Z,11.70
2022-09-28T21:11:30.297Z,11.70
2022-09-28T21:14:00.103Z,11.70
2022-09-28T21:16:29.812Z,11.60
2022-09-28T21:18:57.143Z,11.70
2022-09-28T21:21:24.956Z,11.30
2022-09-28T21:23:56.409Z,11.00
2022-09-28T21:26:26.272Z,10.70
2022-09-28T21:28:54.464Z,10.60
2022-09-28T21:31:27.721Z,10.50
2022-09-28T21:33:56.766Z,10.50
2022-09-28T21:36:23.751Z,10.40
2022-09-28T21:38:50.711Z,10.40
2022-09-28T21:41:17.769Z,10.30
2022-09-28T21:43:45.954Z,10.20
2022-09-28T21:46:13.060Z,10.20
2022-09-28T21:48:40.544Z,10.10
2022-09-28T21:51:10.217Z,10.00
2022-09-28T21:53:37.994Z,9.90
2022-09-28T21:56:07.710Z,9.90
2022-09-28T21:58:35.669Z,9.90
2022-09-28T22:01:13.245Z,9.80
2022-09-28T22:03:40.968Z,9.80
2022-09-28T22:06:08.708Z,9.90
2022-09-28T22:08:37.016Z,9.90
2022-09-28T22:11:15.824Z,9.90
2022-09-28T22:13:45.329Z,9.80
2022-09-28T22:16:14.271Z,9.70
2022-09-28T22:18:41.584Z,9.70
2022-09-28T22:21:12.635Z,9.60
2022-09-28T22:23:40.263Z,9.60
2022-09-28T22:26:08.789Z,9.50
2022-09-28T22:28:35.980Z,9.50
2022-09-28T22:31:03.224Z,9.50
2022-09-28T22:33:30.424Z,9.50
2022-09-28T22:35:57.544Z,9.50
2022-09-28T22:38:25.195Z,9.60
2022-09-28T22:40:58.417Z,9.60
2022-09-28T22:43:27.052Z,9.70
2022-09-28T22:46:07.349Z,9.70
2022-09-28T22:48:34.952Z,9.80
2022-09-28T22:51:03.499Z,9.80
2022-09-28T22:53:31.024Z,9.90
2022-09-28T22:56:00.018Z,9.90
2022-09-28T22:58:27.499Z,9.90
2022-09-28T23:00:58.122Z,10.00
2022-09-28T23:03:24.991Z,10.10
2022-09-28T23:05:55.906Z,10.10
2022-09-28T23:08:24.113Z,10.10
2022-09-28T23:10:51.883Z,10.20
2022-09-28T23:13:19.024Z,10.20
2022-09-28T23:16:03.797Z,10.30
2022-09-28T23:18:33.125Z,10.30
2022-09-28T23:21:02.771Z,10.30
2022-09-28T23:23:30.336Z,10.30
2022-09-28T23:25:57.291Z,10.30
2022-09-28T23:28:26.291Z,10.20
2022-09-28T23:30:53.627Z,10.20
2022-09-28T23:33:23.764Z,10.10
2022-09-28T23:35:51.221Z,10.10
2022-09-28T23:38:28.724Z,10.10
2022-09-28T23:40:55.731Z,10.20
2022-09-28T23:43:22.763Z,10.20
2022-09-28T23:45:49.697Z,10.20
2022-09-28T23:48:16.653Z,10.20
2022-09-28T23:50:44.770Z,10.20
2022-09-28T23:53:14.212Z,10.20
2022-09-28T23:55:43.057Z,10.20
2022-09-28T23:58:10.916Z,10.20
